Time;durP1;ratioP1;P1;durP2;ratioP2;P2;SDS_P1;SDS_P2;PMS_P1;PMS_P2;Temp;Humidity;BMP_temperature;BMP_pressure;BME280_temperature;BME280_humidity;BME280_pressure;Samples;Min_cycle;Max_cycle;Signal;HPM_P1;HPM_P2
2021/10/20 00:01:34;;;;;;;;;;;8.90;99.90;;;;;;21027990;28;19912;-78
2021/10/20 00:11:34;;;;;;;;;;;8.70;99.90;;;;;;21059309;28;19924;-78
2021/10/20 00:21:35;;;;;;;;;;;8.70;99.90;;;;;;21028674;28;19912;-78
2021/10/20 00:31:36;;;;;;;;;;;8.70;99.90;;;;;;21025910;28;19917;-78
2021/10/20 00:41:37;;;;;;;;;;;8.50;99.90;;;;;;21024618;28;20406;-79
2021/10/20 00:51:38;;;;;;;;;;;8.50;99.90;;;;;;21031142;28;19927;-79
2021/10/20 01:01:38;;;;;;;;;;;8.50;99.90;;;;;;21028166;28;19962;-78
2021/10/20 01:11:39;;;;;;;;;;;8.40;99.90;;;;;;21008629;28;19923;-79
2021/10/20 01:21:40;;;;;;;;;;;8.20;99.90;;;;;;20997925;28;19916;-78
2021/10/20 01:31:45;;;;;;;;;;;8.10;99.90;;;;;;20997162;28;19956;-79
2021/10/20 01:41:46;;;;;;;;;;;8.10;99.90;;;;;;20996007;28;20267;-79
2021/10/20 01:51:47;;;;;;;;;;;8.00;99.90;;;;;;20992920;28;20375;-78
2021/10/20 02:01:47;;;;;;;;;;;7.80;99.90;;;;;;20994603;28;19982;-79
2021/10/20 02:11:48;;;;;;;;;;;7.70;99.90;;;;;;20993812;28;19966;-79
2021/10/20 02:21:49;;;;;;;;;;;7.80;99.90;;;;;;20993196;28;19917;-78
2021/10/20 02:31:50;;;;;;;;;;;7.80;99.90;;;;;;20992307;28;20018;-79
2021/10/20 02:41:50;;;;;;;;;;;7.90;99.90;;;;;;20992278;28;20350;-78
2021/10/20 02:51:51;;;;;;;;;;;7.90;99.90;;;;;;20992711;28;19948;-78
2021/10/20 03:01:52;;;;;;;;;;;7.70;99.90;;;;;;20990599;28;19916;-78
2021/10/20 03:11:52;;;;;;;;;;;7.70;99.90;;;;;;20989862;28;20003;-78
2021/10/20 03:21:53;;;;;;;;;;;7.80;99.90;;;;;;20987240;28;19913;-78
2021/10/20 03:31:54;;;;;;;;;;;7.90;99.90;;;;;;20989876;28;19948;-78
2021/10/20 03:41:54;;;;;;;;;;;7.80;99.90;;;;;;20989826;28;19916;-78
2021/10/20 03:51:55;;;;;;;;;;;7.90;99.90;;;;;;20989351;28;19986;-77
2021/10/20 04:01:56;;;;;;;;;;;7.90;99.90;;;;;;20988841;28;19920;-78
2021/10/20 04:11:57;;;;;;;;;;;8.00;99.90;;;;;;20988013;28;20393;-76
2021/10/20 04:21:57;;;;;;;;;;;7.90;99.90;;;;;;20998826;28;20007;-77
2021/10/20 04:31:58;;;;;;;;;;;7.70;99.90;;;;;;20999598;28;19946;-77
2021/10/20 04:41:58;;;;;;;;;;;7.40;99.90;;;;;;21000363;28;20449;-77
2021/10/20 04:51:59;;;;;;;;;;;7.50;99.90;;;;;;21000008;28;19920;-77
2021/10/20 05:02:01;;;;;;;;;;;7.30;99.90;;;;;;20998130;28;19912;-77
2021/10/20 05:12:01;;;;;;;;;;;7.70;99.90;;;;;;20998267;28;20494;-77
2021/10/20 05:22:02;;;;;;;;;;;7.50;99.90;;;;;;20996979;28;20015;-77
2021/10/20 05:32:04;;;;;;;;;;;7.30;99.90;;;;;;20996623;28;19964;-77
2021/10/20 05:42:04;;;;;;;;;;;7.00;99.90;;;;;;20996147;28;19954;-77
2021/10/20 05:52:06;;;;;;;;;;;6.70;99.90;;;;;;20992339;28;19920;-79
2021/10/20 06:02:11;;;;;;;;;;;6.70;99.90;;;;;;20994428;28;19920;-79
2021/10/20 06:12:11;;;;;;;;;;;6.70;99.90;;;;;;20992867;28;19917;-79
2021/10/20 06:22:12;;;;;;;;;;;6.70;99.90;;;;;;20997177;28;19912;-80
2021/10/20 06:32:13;;;;;;;;;;;6.90;99.90;;;;;;20993263;28;19962;-79
2021/10/20 06:42:13;;;;;;;;;;;7.50;99.90;;;;;;20993128;28;20305;-79
2021/10/20 06:52:14;;;;;;;;;;;8.30;99.90;;;;;;20992189;28;19917;-78
2021/10/20 07:02:15;;;;;;;;;;;9.10;99.90;;;;;;20991032;28;19916;-79
2021/10/20 07:12:15;;;;;;;;;;;9.30;99.90;;;;;;20990867;28;19964;-77
2021/10/20 07:22:16;;;;;;;;;;;10.00;99.90;;;;;;20990584;28;19951;-78
2021/10/20 07:32:17;;;;;;;;;;;10.30;99.90;;;;;;20989794;28;20394;-78
2021/10/20 07:42:18;;;;;;;;;;;10.60;99.90;;;;;;20991742;28;19919;-78
2021/10/20 07:52:19;;;;;;;;;;;11.10;99.90;;;;;;20997406;28;19962;-78
2021/10/20 08:02:21;;;;;;;;;;;11.70;99.90;;;;;;21014877;28;20012;-78
2021/10/20 08:12:22;;;;;;;;;;;12.00;99.90;;;;;;21008848;28;19916;-78
2021/10/20 08:22:23;;;;;;;;;;;12.50;99.90;;;;;;21011175;28;20290;-78
2021/10/20 08:32:24;;;;;;;;;;;13.20;99.90;;;;;;21000827;28;19962;-77
2021/10/20 08:42:24;;;;;;;;;;;13.30;99.90;;;;;;21001828;28;19913;-78
2021/10/20 08:52:25;;;;;;;;;;;14.80;99.90;;;;;;21000632;28;20306;-77
2021/10/20 09:02:26;;;;;;;;;;;16.40;99.90;;;;;;20997879;28;20017;-77
2021/10/20 09:12:28;;;;;;;;;;;16.90;99.90;;;;;;20998024;28;20378;-77
2021/10/20 09:22:29;;;;;;;;;;;18.10;99.90;;;;;;20997381;28;19917;-77
2021/10/20 09:32:29;;;;;;;;;;;19.50;99.90;;;;;;20997037;28;19966;-78
2021/10/20 09:42:42;;;;;;;;;;;19.00;99.90;;;;;;20996751;28;19913;-78
2021/10/20 09:52:52;;;;;;;;;;;20.30;99.90;;;;;;20995885;28;20329;-77
2021/10/20 10:02:53;;;;;;;;;;;18.20;99.90;;;;;;21002160;28;19916;-77
2021/10/20 10:12:55;;;;;;;;;;;18.70;99.90;;;;;;20993386;28;19924;-78
2021/10/20 10:23:02;;;;;;;;;;;20.60;99.90;;;;;;20993785;28;19920;-78
2021/10/20 10:33:03;;;;;;;;;;;22.50;99.90;;;;;;20995218;28;19916;-78
2021/10/20 10:43:06;;;;;;;;;;;23.10;99.90;;;;;;20994820;28;19912;-77
2021/10/20 10:53:06;;;;;;;;;;;23.90;99.90;;;;;;20999797;28;20007;-78
2021/10/20 11:03:10;;;;;;;;;;;22.70;99.90;;;;;;20991717;28;19919;-77
2021/10/20 11:13:14;;;;;;;;;;;23.70;99.90;;;;;;20991689;28;19916;-78
2021/10/20 11:23:17;;;;;;;;;;;23.00;99.90;;;;;;20992595;28;19913;-78
2021/10/20 11:33:17;;;;;;;;;;;22.10;99.90;;;;;;21006706;28;20395;-78
2021/10/20 11:43:35;;;;;;;;;;;23.40;99.90;;;;;;21014983;28;19935;-77
2021/10/20 11:53:36;;;;;;;;;;;23.60;99.90;;;;;;21004300;28;19927;-77
2021/10/20 12:03:39;;;;;;;;;;;22.30;99.90;;;;;;21004585;28;19912;-78
2021/10/20 12:13:39;;;;;;;;;;;21.90;99.90;;;;;;21006201;28;20003;-79
2021/10/20 12:23:42;;;;;;;;;;;22.10;99.90;;;;;;21011078;28;20373;-78
2021/10/20 12:33:46;;;;;;;;;;;22.30;99.90;;;;;;21013985;28;19916;-78
2021/10/20 12:43:50;;;;;;;;;;;22.00;99.90;;;;;;21012118;28;19935;-82
2021/10/20 12:54:00;;;;;;;;;;;21.50;99.90;;;;;;21016469;28;19916;-78
2021/10/20 13:04:01;;;;;;;;;;;20.80;99.90;;;;;;21010400;28;20007;-78
2021/10/20 13:14:02;;;;;;;;;;;20.70;99.90;;;;;;21015149;28;19970;-79
2021/10/20 13:24:03;;;;;;;;;;;20.80;99.90;;;;;;21014923;28;19912;-80
2021/10/20 13:34:04;;;;;;;;;;;20.50;99.90;;;;;;21011996;28;20371;-79
2021/10/20 13:44:05;;;;;;;;;;;20.30;99.90;;;;;;21020312;28;19924;-78
2021/10/20 13:54:05;;;;;;;;;;;19.40;99.90;;;;;;21012292;28;19969;-79
2021/10/20 14:04:06;;;;;;;;;;;19.30;99.90;;;;;;21011162;28;19913;-80
2021/10/20 14:14:07;;;;;;;;;;;18.70;99.90;;;;;;21044413;28;19916;-79
2021/10/20 14:24:08;;;;;;;;;;;18.30;99.90;;;;;;21012595;28;20284;-79
2021/10/20 14:34:11;;;;;;;;;;;18.10;99.90;;;;;;21008317;28;20306;-79
2021/10/20 14:44:14;;;;;;;;;;;18.40;99.90;;;;;;21009095;28;19912;-79
2021/10/20 14:54:14;;;;;;;;;;;18.10;99.90;;;;;;20984946;28;19935;-79
2021/10/20 15:04:16;;;;;;;;;;;18.40;99.90;;;;;;20971633;28;19916;-79
2021/10/20 15:14:17;;;;;;;;;;;18.70;99.90;;;;;;20970702;28;19920;-78
2021/10/20 15:24:17;;;;;;;;;;;18.80;99.90;;;;;;20970407;28;19920;-78
2021/10/20 15:34:19;;;;;;;;;;;18.50;99.90;;;;;;20974971;28;19920;-79
2021/10/20 15:44:20;;;;;;;;;;;18.50;99.90;;;;;;20970955;28;19916;-79
2021/10/20 15:54:21;;;;;;;;;;;17.80;99.90;;;;;;20967332;28;19954;-78
2021/10/20 16:04:22;;;;;;;;;;;17.60;99.90;;;;;;20967156;28;19927;-78
2021/10/20 16:14:23;;;;;;;;;;;17.30;99.90;;;;;;20972699;28;19920;-77
2021/10/20 16:24:23;;;;;;;;;;;17.10;99.90;;;;;;20978455;28;19920;-77
2021/10/20 16:34:24;;;;;;;;;;;16.70;99.90;;;;;;20977644;28;20019;-78
2021/10/20 16:44:25;;;;;;;;;;;16.50;99.90;;;;;;20978718;28;19976;-79
2021/10/20 16:54:26;;;;;;;;;;;16.10;99.90;;;;;;20977446;28;19932;-78
2021/10/20 17:04:26;;;;;;;;;;;15.90;99.90;;;;;;20972137;28;20508;-77
2021/10/20 17:14:28;;;;;;;;;;;15.70;99.90;;;;;;20978393;28;19928;-79
2021/10/20 17:24:29;;;;;;;;;;;15.40;99.90;;;;;;20981995;28;19920;-80
2021/10/20 17:34:30;;;;;;;;;;;15.20;99.90;;;;;;20970348;28;19925;-76
2021/10/20 17:44:31;;;;;;;;;;;15.20;99.90;;;;;;20973929;28;19959;-78
2021/10/20 17:54:31;;;;;;;;;;;15.10;99.90;;;;;;20968116;28;20020;-77
2021/10/20 18:04:32;;;;;;;;;;;15.10;99.90;;;;;;20953499;28;19998;-78
2021/10/20 18:14:33;;;;;;;;;;;15.20;99.90;;;;;;20955418;28;19935;-77
2021/10/20 18:24:33;;;;;;;;;;;15.20;99.90;;;;;;20953282;28;19921;-77
2021/10/20 18:34:34;;;;;;;;;;;15.20;99.90;;;;;;20951019;28;19943;-77
2021/10/20 18:44:35;;;;;;;;;;;15.00;99.90;;;;;;20953090;28;19920;-77
2021/10/20 18:54:36;;;;;;;;;;;14.70;99.90;;;;;;20955164;28;20651;-77
2021/10/20 19:04:37;;;;;;;;;;;15.10;99.90;;;;;;20956196;28;19976;-77
2021/10/20 19:14:39;;;;;;;;;;;15.30;99.90;;;;;;20962863;28;20343;-77
2021/10/20 19:24:40;;;;;;;;;;;15.60;99.90;;;;;;20956136;28;19927;-78
2021/10/20 19:34:41;;;;;;;;;;;15.10;99.90;;;;;;20953384;28;19926;-77
2021/10/20 19:44:42;;;;;;;;;;;14.90;99.90;;;;;;20960709;28;20622;-78
2021/10/20 19:54:42;;;;;;;;;;;15.10;99.90;;;;;;20977576;28;19924;-79
2021/10/20 20:04:44;;;;;;;;;;;15.40;99.90;;;;;;20972654;28;19968;-78
2021/10/20 20:14:44;;;;;;;;;;;15.90;99.90;;;;;;20977404;28;19930;-80
2021/10/20 20:24:45;;;;;;;;;;;15.90;99.90;;;;;;20981075;28;20015;-78
2021/10/20 20:34:46;;;;;;;;;;;16.60;99.90;;;;;;20990111;28;20715;-79
2021/10/20 20:44:48;;;;;;;;;;;16.80;99.90;;;;;;21013851;28;20416;-77
2021/10/20 20:54:49;;;;;;;;;;;17.00;99.90;;;;;;21013473;28;20019;-78
2021/10/20 21:04:50;;;;;;;;;;;16.90;99.90;;;;;;20999179;28;19913;-78
2021/10/20 21:14:53;;;;;;;;;;;17.30;99.90;;;;;;20997562;28;19917;-77
2021/10/20 21:24:54;;;;;;;;;;;16.60;99.90;;;;;;20996916;28;19919;-77
2021/10/20 21:34:55;;;;;;;;;;;16.70;99.90;;;;;;20996840;28;20308;-78
2021/10/20 21:44:56;;;;;;;;;;;16.90;99.90;;;;;;20996556;28;19919;-77
2021/10/20 21:54:57;;;;;;;;;;;16.90;99.90;;;;;;20995594;28;19921;-78
2021/10/20 22:04:58;;;;;;;;;;;16.80;99.90;;;;;;20994676;28;19912;-77
2021/10/20 22:14:59;;;;;;;;;;;17.00;99.90;;;;;;20993838;28;19924;-78
2021/10/20 22:25:00;;;;;;;;;;;16.80;99.90;;;;;;20993314;28;19916;-78
2021/10/20 22:35:01;;;;;;;;;;;16.80;99.90;;;;;;20993034;28;20436;-76
2021/10/20 22:45:02;;;;;;;;;;;16.40;99.90;;;;;;20975694;28;19919;-76
2021/10/20 22:55:11;;;;;;;;;;;16.30;99.90;;;;;;20974571;28;20074;-76
2021/10/20 23:05:12;;;;;;;;;;;16.30;99.90;;;;;;20991984;28;20290;-77
2021/10/20 23:15:13;;;;;;;;;;;16.00;99.90;;;;;;20991541;28;19923;-76
2021/10/20 23:25:13;;;;;;;;;;;16.00;99.90;;;;;;21001676;28;19999;-76
2021/10/20 23:35:14;;;;;;;;;;;15.70;99.90;;;;;;21007824;28;20302;-76
2021/10/20 23:45:15;;;;;;;;;;;15.40;99.90;;;;;;21006851;28;19912;-77
2021/10/20 23:55:16;;;;;;;;;;;15.80;99.90;;;;;;21006040;28;19920;-77
